createdAt,value
2022-11-24T00:11:03.178Z,89.51
2022-11-24T00:39:55.114Z,90.79
2022-11-24T01:08:41.120Z,91.41
2022-11-24T01:37:31.941Z,94.3
2022-11-24T02:06:23.044Z,99
2022-11-24T02:35:04.790Z,100
2022-11-24T03:03:51.578Z,95.26
2022-11-24T03:32:45.287Z,94.12
2022-11-24T04:00:54.488Z,94.47
2022-11-24T04:29:51.166Z,98.89
2022-11-24T04:58:39.222Z,99.32
2022-11-24T05:27:26.934Z,96.47
2022-11-24T05:56:28.023Z,100
2022-11-24T06:25:13.224Z,100
2022-11-24T06:53:45.852Z,100
2022-11-24T07:22:41.449Z,100
2022-11-24T07:51:23.736Z,100
2022-11-24T08:20:13.833Z,100
2022-11-24T08:49:01.810Z,100
2022-11-24T09:17:52.857Z,96.75
2022-11-24T09:46:56.256Z,87.21
2022-11-24T10:15:35.040Z,90.78
2022-11-24T10:44:28.317Z,84.28
2022-11-24T11:13:01.888Z,80.79
2022-11-24T11:41:30.201Z,68.12
2022-11-24T12:09:52.091Z,63
2022-11-24T12:38:14.555Z,61.05
2022-11-24T13:07:08.262Z,60.64
2022-11-24T13:35:52.861Z,62.51
2022-11-24T14:04:46.935Z,62.93
2022-11-24T14:33:17.070Z,62
2022-11-24T15:02:12.649Z,62.63
2022-11-24T15:30:56.164Z,71.64
2022-11-24T15:59:29.119Z,81.2
2022-11-24T16:28:18.776Z,88.45
2022-11-24T16:57:15.463Z,90.18
2022-11-24T17:25:20.618Z,93.45
2022-11-24T17:54:45.765Z,92.13
2022-11-24T18:23:05.317Z,93.88
2022-11-24T18:51:09.473Z,94.55
2022-11-24T19:19:58.250Z,93.97
2022-11-24T19:48:49.430Z,93.6
2022-11-24T20:17:38.919Z,92.27
2022-11-24T20:46:32.738Z,91.01
2022-11-24T21:15:21.279Z,94.84
2022-11-24T21:44:09.947Z,96.71
2022-11-24T22:13:02.027Z,98.48
2022-11-24T22:41:52.652Z,99.55
2022-11-24T23:10:35.039Z,100
2022-11-24T23:39:20.675Z,100
